createdAt,value
2023-05-05T00:01:34.348Z,59.00
2023-05-05T00:04:37.075Z,58.60
2023-05-05T00:07:39.800Z,58.90
2023-05-05T00:10:45.787Z,51.90
2023-05-05T00:13:48.575Z,67.00
2023-05-05T00:16:51.381Z,64.40
2023-05-05T00:19:54.206Z,58.70
2023-05-05T00:22:57.029Z,49.50
2023-05-05T00:25:59.786Z,52.10
2023-05-05T00:29:02.590Z,49.10
2023-05-05T00:32:05.449Z,53.30
2023-05-05T00:35:08.919Z,57.10
2023-05-05T00:38:11.689Z,50.20
2023-05-05T00:41:14.530Z,53.00
2023-05-05T00:44:17.263Z,46.50
2023-05-05T00:47:20.399Z,45.50
2023-05-05T00:50:26.806Z,42.00
2023-05-05T00:53:29.856Z,46.00
2023-05-05T00:56:33.287Z,47.00
2023-05-05T00:59:37.461Z,45.20
2023-05-05T01:02:41.440Z,45.10
2023-05-05T01:06:04.648Z,54.00
2023-05-05T01:09:20.564Z,60.40
2023-05-05T01:12:44.785Z,56.30
2023-05-05T01:15:53.515Z,51.30
2023-05-05T01:19:24.407Z,41.40
2023-05-05T01:22:52.668Z,55.90
2023-05-05T01:26:11.903Z,48.80
2023-05-05T01:29:52.633Z,51.10
2023-05-05T01:33:01.280Z,56.00
2023-05-05T01:36:10.653Z,45.10
2023-05-05T01:39:16.852Z,43.50
2023-05-05T01:42:22.692Z,52.50
2023-05-05T01:45:32.205Z,43.90
2023-05-05T01:48:37.002Z,46.50
2023-05-05T01:51:41.464Z,46.00
2023-05-05T01:54:46.633Z,39.40
2023-05-05T01:57:50.850Z,39.60
2023-05-05T02:00:56.733Z,40.20
2023-05-05T02:04:02.302Z,37.50
2023-05-05T02:07:06.291Z,32.80
2023-05-05T02:10:12.358Z,38.80
2023-05-05T02:13:17.448Z,39.10
2023-05-05T02:16:22.120Z,37.50
2023-05-05T02:19:30.988Z,37.10
2023-05-05T02:22:34.178Z,35.50
2023-05-05T02:25:44.198Z,28.80
2023-05-05T02:28:52.844Z,33.40
2023-05-05T02:32:02.511Z,31.80
2023-05-05T02:35:14.308Z,31.10
2023-05-05T02:38:19.563Z,47.80
2023-05-05T02:41:27.590Z,50.20
2023-05-05T02:44:33.145Z,46.40
2023-05-05T02:47:37.273Z,48.10
2023-05-05T02:50:41.389Z,49.50
2023-05-05T02:53:56.360Z,61.40
2023-05-05T02:57:00.592Z,56.30
2023-05-05T03:00:24.115Z,59.60
2023-05-05T03:03:55.995Z,55.30
2023-05-05T03:07:06.956Z,43.50
2023-05-05T03:10:17.734Z,35.40
2023-05-05T03:13:26.951Z,32.30
2023-05-05T03:16:32.176Z,39.40
2023-05-05T03:19:36.327Z,34.30
2023-05-05T03:22:39.360Z,28.60
2023-05-05T03:25:45.037Z,33.40
2023-05-05T03:28:52.672Z,34.50
2023-05-05T03:32:01.553Z,41.50
2023-05-05T03:35:05.508Z,37.10
2023-05-05T03:38:09.212Z,36.00
2023-05-05T03:41:12.017Z,31.10
2023-05-05T03:44:14.801Z,43.20
2023-05-05T03:47:17.654Z,34.50
2023-05-05T03:50:21.080Z,32.50
2023-05-05T03:53:24.730Z,38.80
2023-05-05T03:56:27.609Z,29.40
2023-05-05T03:59:30.409Z,35.50
2023-05-05T04:02:33.351Z,37.50
2023-05-05T04:05:38.063Z,38.30
2023-05-05T04:08:41.433Z,44.10
2023-05-05T04:11:44.232Z,67.10
2023-05-05T04:14:47.785Z,70.30
2023-05-05T04:17:50.898Z,58.60
2023-05-05T04:20:53.995Z,64.60
2023-05-05T04:23:58.496Z,65.30
2023-05-05T04:27:02.415Z,63.40
2023-05-05T04:30:06.902Z,54.20
2023-05-05T04:33:10.832Z,45.70
2023-05-05T04:36:13.788Z,55.00
2023-05-05T04:39:17.510Z,47.80
2023-05-05T04:42:20.388Z,55.90
2023-05-05T04:45:23.231Z,55.80
2023-05-05T04:48:26.210Z,50.60
2023-05-05T04:51:29.275Z,50.20
2023-05-05T04:54:36.415Z,60.50
2023-05-05T04:57:39.293Z,64.40
2023-05-05T05:00:42.380Z,62.60
2023-05-05T05:03:45.292Z,59.70
2023-05-05T05:06:48.407Z,51.10
2023-05-05T05:09:51.600Z,68.50
2023-05-05T05:12:54.513Z,56.40
2023-05-05T05:15:57.526Z,45.40
2023-05-05T05:19:01.638Z,46.70
2023-05-05T05:22:06.146Z,47.20
2023-05-05T05:25:10.490Z,65.00
2023-05-05T05:28:13.308Z,46.90
2023-05-05T05:31:21.129Z,58.20
2023-05-05T05:34:24.219Z,54.50
2023-05-05T05:37:31.143Z,46.20
2023-05-05T05:40:34.703Z,26.50
2023-05-05T05:43:38.085Z,23.00
2023-05-05T05:46:41.258Z,20.00
2023-05-05T05:49:44.190Z,14.80
2023-05-05T05:52:47.492Z,20.50
2023-05-05T05:55:51.320Z,22.30
2023-05-05T05:58:54.144Z,20.70
2023-05-05T06:01:57.328Z,15.10
2023-05-05T06:05:00.721Z,38.40
2023-05-05T06:08:03.861Z,16.40
2023-05-05T06:11:08.118Z,15.70
2023-05-05T06:14:10.962Z,13.70
2023-05-05T06:17:14.269Z,19.00
2023-05-05T06:20:17.368Z,27.70
2023-05-05T06:23:20.185Z,16.00
2023-05-05T06:26:27.584Z,14.40
2023-05-05T06:29:30.329Z,14.70
2023-05-05T06:32:33.267Z,15.90
2023-05-05T06:35:36.195Z,13.10
2023-05-05T06:38:38.895Z,12.00
2023-05-05T06:41:41.870Z,14.60
2023-05-05T06:44:44.597Z,15.00
2023-05-05T06:47:47.420Z,11.70
2023-05-05T06:50:50.332Z,10.50
2023-05-05T06:53:53.039Z,9.70
2023-05-05T06:56:57.525Z,11.50
2023-05-05T07:00:19.769Z,9.10
2023-05-05T07:03:22.563Z,8.10
2023-05-05T07:06:25.351Z,6.90
2023-05-05T07:09:28.123Z,6.80
2023-05-05T07:12:31.331Z,13.50
2023-05-05T07:15:34.643Z,10.90
2023-05-05T07:18:37.488Z,10.20
2023-05-05T07:21:40.210Z,8.30
2023-05-05T07:24:42.917Z,8.20
2023-05-05T07:27:45.866Z,24.20
2023-05-05T07:30:48.686Z,8.40
2023-05-05T07:33:51.734Z,16.60
2023-05-05T07:36:56.439Z,7.40
2023-05-05T07:39:59.150Z,7.90
2023-05-05T07:43:02.027Z,7.20
2023-05-05T07:46:04.872Z,6.40
2023-05-05T07:49:07.765Z,8.20
2023-05-05T07:52:10.636Z,7.50
2023-05-05T07:55:13.432Z,6.50
2023-05-05T07:58:16.325Z,39.20
2023-05-05T08:01:19.314Z,7.40
2023-05-05T08:04:22.150Z,10.00
2023-05-05T08:07:25.024Z,8.40
2023-05-05T08:10:27.838Z,8.00
2023-05-05T08:13:31.125Z,7.00
2023-05-05T08:16:34.486Z,8.50
2023-05-05T08:19:37.459Z,7.10
2023-05-05T08:22:42.036Z,7.00
2023-05-05T08:25:44.794Z,7.80
2023-05-05T08:28:48.694Z,9.50
2023-05-05T08:31:51.524Z,11.40
2023-05-05T08:34:54.463Z,7.30
2023-05-05T08:37:59.099Z,10.80
2023-05-05T08:41:02.149Z,8.00
2023-05-05T08:44:05.044Z,11.30
2023-05-05T08:47:11.198Z,11.20
2023-05-05T08:50:14.148Z,9.60
2023-05-05T08:53:21.937Z,4.30
2023-05-05T08:56:33.136Z,17.50
2023-05-05T08:59:37.287Z,16.80
2023-05-05T09:02:42.887Z,6.90
2023-05-05T09:05:45.897Z,4.70
2023-05-05T09:08:49.644Z,5.00
2023-05-05T09:11:53.877Z,5.60
2023-05-05T09:14:58.981Z,5.50
2023-05-05T09:18:02.462Z,6.50
2023-05-05T09:21:25.993Z,5.80
2023-05-05T09:24:28.895Z,4.50
2023-05-05T09:27:36.472Z,5.70
2023-05-05T09:30:41.181Z,7.90
2023-05-05T09:33:44.235Z,5.50
2023-05-05T09:36:48.931Z,9.90
2023-05-05T09:39:56.201Z,8.60
2023-05-05T09:43:02.963Z,9.10
2023-05-05T09:46:07.723Z,5.20
2023-05-05T09:49:23.401Z,4.10
2023-05-05T09:52:26.848Z,6.70
2023-05-05T09:55:33.375Z,6.30
2023-05-05T09:58:36.527Z,9.10
2023-05-05T10:01:39.533Z,8.20
2023-05-05T10:04:43.846Z,5.90
2023-05-05T10:07:48.106Z,5.90
2023-05-05T10:11:00.576Z,11.10
2023-05-05T10:14:06.520Z,4.40
2023-05-05T10:17:10.135Z,4.80
2023-05-05T10:20:14.433Z,8.30
2023-05-05T10:23:20.806Z,3.40
2023-05-05T10:26:26.733Z,3.40
2023-05-05T10:29:52.873Z,2.90
2023-05-05T10:33:26.721Z,5.70
2023-05-05T10:36:27.932Z,7.20
2023-05-05T10:39:31.531Z,5.00
2023-05-05T10:42:37.371Z,3.70
2023-05-05T10:45:41.512Z,3.60
2023-05-05T10:48:56.603Z,4.70
2023-05-05T10:52:12.716Z,5.10
2023-05-05T10:55:31.876Z,14.10
2023-05-05T10:58:58.339Z,6.90
2023-05-05T11:02:18.209Z,8.60
2023-05-05T11:05:23.799Z,2.80
2023-05-05T11:08:27.174Z,5.70
2023-05-05T11:12:02.956Z,4.40
2023-05-05T11:15:24.251Z,5.50
2023-05-05T11:18:43.305Z,3.60
2023-05-05T11:22:02.285Z,7.20
2023-05-05T11:25:37.528Z,5.90
2023-05-05T11:29:02.218Z,13.90
2023-05-05T11:32:15.886Z,12.50
2023-05-05T11:35:18.983Z,6.40
2023-05-05T11:38:44.675Z,9.40
2023-05-05T11:42:22.556Z,6.70
2023-05-05T11:45:25.793Z,7.90
2023-05-05T11:48:28.585Z,3.90
2023-05-05T11:51:31.881Z,3.60
2023-05-05T11:54:36.747Z,7.70
2023-05-05T11:57:39.565Z,9.10
2023-05-05T12:00:42.340Z,5.00
2023-05-05T12:03:46.005Z,6.20
2023-05-05T12:06:49.378Z,4.10
2023-05-05T12:09:52.978Z,5.40
2023-05-05T12:12:56.100Z,3.40
2023-05-05T12:16:16.537Z,7.70
2023-05-05T12:19:19.302Z,7.50
2023-05-05T12:22:26.464Z,3.90
2023-05-05T12:25:36.995Z,6.30
2023-05-05T12:28:46.482Z,10.20
2023-05-05T12:31:49.504Z,4.30
2023-05-05T12:34:54.880Z,6.10
2023-05-05T12:37:58.584Z,10.50
2023-05-05T12:41:02.526Z,5.70
2023-05-05T12:44:05.435Z,5.60
2023-05-05T12:47:08.718Z,26.50
2023-05-05T12:50:11.552Z,7.50
2023-05-05T12:53:24.899Z,5.80
2023-05-05T12:56:34.911Z,7.30
2023-05-05T12:59:37.697Z,7.70
2023-05-05T13:02:40.657Z,6.60
2023-05-05T13:05:43.743Z,10.30
2023-05-05T13:08:46.720Z,13.00
2023-05-05T13:11:49.496Z,14.10
2023-05-05T13:14:52.212Z,10.30
2023-05-05T13:18:01.704Z,9.70
2023-05-05T13:21:04.770Z,7.40
2023-05-05T13:24:25.325Z,6.40
2023-05-05T13:27:30.629Z,15.30
2023-05-05T13:30:33.504Z,6.30
2023-05-05T13:33:36.264Z,6.30
2023-05-05T13:36:39.029Z,18.30
2023-05-05T13:39:41.832Z,17.00
2023-05-05T13:42:44.618Z,8.10
2023-05-05T13:45:47.372Z,6.00
2023-05-05T13:48:52.498Z,7.30
2023-05-05T13:51:59.159Z,6.00
2023-05-05T13:55:01.874Z,9.90
2023-05-05T13:58:04.719Z,6.70
2023-05-05T14:01:07.487Z,6.50
2023-05-05T14:04:10.594Z,11.00
2023-05-05T14:07:13.435Z,4.50
2023-05-05T14:10:16.217Z,6.20
2023-05-05T14:13:19.206Z,6.00
2023-05-05T14:16:22.117Z,7.00
2023-05-05T14:19:25.061Z,10.20
2023-05-05T14:22:27.804Z,6.30
2023-05-05T14:25:30.503Z,9.30
2023-05-05T14:28:33.305Z,8.30
2023-05-05T14:31:36.839Z,8.60
2023-05-05T14:34:39.794Z,11.50
2023-05-05T14:37:42.568Z,6.70
2023-05-05T14:40:45.389Z,7.90
2023-05-05T14:43:48.083Z,8.60
2023-05-05T14:46:51.347Z,14.40
2023-05-05T14:49:54.210Z,14.30
2023-05-05T14:52:56.992Z,8.20
2023-05-05T14:56:01.080Z,11.90
2023-05-05T14:59:03.813Z,9.60
2023-05-05T15:02:07.245Z,16.40
2023-05-05T15:05:10.387Z,13.30
2023-05-05T15:08:14.600Z,17.10
2023-05-05T15:11:17.363Z,9.00
2023-05-05T15:14:20.160Z,6.50
2023-05-05T15:17:23.008Z,9.00
2023-05-05T15:20:25.844Z,20.60
2023-05-05T15:23:28.601Z,13.80
2023-05-05T15:26:31.963Z,9.10
2023-05-05T15:29:34.853Z,14.00
2023-05-05T15:32:37.993Z,6.50
2023-05-05T15:35:40.711Z,6.20
2023-05-05T15:38:43.623Z,9.00
2023-05-05T15:41:46.383Z,8.00
2023-05-05T15:44:49.164Z,15.40
2023-05-05T15:47:52.972Z,10.10
2023-05-05T15:50:55.918Z,14.10
2023-05-05T15:53:59.543Z,5.70
2023-05-05T15:57:03.219Z,9.00
2023-05-05T16:00:07.979Z,13.00
2023-05-05T16:03:10.782Z,8.90
2023-05-05T16:06:13.828Z,15.30
2023-05-05T16:09:16.607Z,5.80
2023-05-05T16:12:20.989Z,10.20
2023-05-05T16:15:23.772Z,14.00
2023-05-05T16:18:26.837Z,5.50
2023-05-05T16:21:29.561Z,19.90
2023-05-05T16:24:32.472Z,23.10
2023-05-05T16:27:35.549Z,12.70
2023-05-05T16:30:39.837Z,5.40
2023-05-05T16:33:43.836Z,6.10
2023-05-05T16:36:46.982Z,10.60
2023-05-05T16:39:49.685Z,4.60
2023-05-05T16:42:52.401Z,12.80
2023-05-05T16:45:55.173Z,9.00
2023-05-05T16:48:57.953Z,4.60
2023-05-05T16:52:00.820Z,7.80
2023-05-05T16:55:04.916Z,5.00
2023-05-05T16:58:08.030Z,17.10
2023-05-05T17:01:10.767Z,13.70
2023-05-05T17:04:13.634Z,4.60
2023-05-05T17:07:16.395Z,8.10
2023-05-05T17:10:19.201Z,6.70
2023-05-05T17:13:23.509Z,9.70
2023-05-05T17:16:26.386Z,7.50
2023-05-05T17:19:29.240Z,16.20
2023-05-05T17:22:32.246Z,5.40
2023-05-05T17:25:35.937Z,14.50
2023-05-05T17:28:38.708Z,23.40
2023-05-05T17:31:42.117Z,14.90
2023-05-05T17:34:45.017Z,8.00
2023-05-05T17:37:47.894Z,21.60
2023-05-05T17:40:50.784Z,11.00
2023-05-05T17:43:53.549Z,9.90
2023-05-05T17:46:56.327Z,9.30
2023-05-05T17:49:59.550Z,13.20
2023-05-05T17:53:02.288Z,10.60
2023-05-05T17:56:07.959Z,6.50
2023-05-05T17:59:11.637Z,8.20
2023-05-05T18:02:14.422Z,18.80
2023-05-05T18:05:17.366Z,8.20
2023-05-05T18:08:20.157Z,10.60
2023-05-05T18:11:27.654Z,13.30
2023-05-05T18:14:31.719Z,8.90
2023-05-05T18:17:34.604Z,22.60
2023-05-05T18:20:37.472Z,8.80
2023-05-05T18:23:40.617Z,11.90
2023-05-05T18:26:43.496Z,12.30
2023-05-05T18:29:46.275Z,7.30
2023-05-05T18:32:49.116Z,9.30
2023-05-05T18:35:51.968Z,17.80
2023-05-05T18:38:54.773Z,10.10
2023-05-05T18:41:57.515Z,16.80
2023-05-05T18:45:00.258Z,11.70
2023-05-05T18:48:03.275Z,20.10
2023-05-05T18:51:07.556Z,8.60
2023-05-05T18:54:10.328Z,9.20
2023-05-05T18:57:13.060Z,12.50
2023-05-05T19:00:15.918Z,11.80
2023-05-05T19:03:19.736Z,10.30
2023-05-05T19:06:22.555Z,12.10
2023-05-05T19:09:25.513Z,5.90
2023-05-05T19:12:28.233Z,13.80
2023-05-05T19:15:32.459Z,7.30
2023-05-05T19:18:35.232Z,6.20
2023-05-05T19:21:38.638Z,13.40
2023-05-05T19:24:41.345Z,14.10
2023-05-05T19:27:44.380Z,6.60
2023-05-05T19:30:48.710Z,6.00
2023-05-05T19:33:51.653Z,5.70
2023-05-05T19:36:54.396Z,11.50
2023-05-05T19:39:57.285Z,14.90
2023-05-05T19:42:59.999Z,11.20
2023-05-05T19:46:02.947Z,7.80
2023-05-05T19:49:06.257Z,8.60
2023-05-05T19:52:09.051Z,7.80
2023-05-05T19:55:13.253Z,12.50
2023-05-05T19:58:16.131Z,11.80
2023-05-05T20:01:18.900Z,6.10
2023-05-05T20:04:21.682Z,14.30
2023-05-05T20:07:24.444Z,7.40
2023-05-05T20:10:27.167Z,7.20
2023-05-05T20:13:29.929Z,15.60
2023-05-05T20:16:33.703Z,8.40
2023-05-05T20:19:36.520Z,9.00
2023-05-05T20:22:40.605Z,14.30
2023-05-05T20:25:43.778Z,9.10
2023-05-05T20:28:46.550Z,12.80
2023-05-05T20:31:49.475Z,10.60
2023-05-05T20:34:52.395Z,18.80
2023-05-05T20:37:55.278Z,10.40
2023-05-05T20:40:58.151Z,5.40
2023-05-05T20:44:01.028Z,6.20
2023-05-05T20:47:04.582Z,6.30
2023-05-05T20:50:08.570Z,6.00
2023-05-05T20:53:15.399Z,8.50
2023-05-05T20:56:18.110Z,15.80
2023-05-05T20:59:20.860Z,5.70
2023-05-05T21:02:23.680Z,15.50
2023-05-05T21:05:26.798Z,6.80
2023-05-05T21:08:30.707Z,6.20
2023-05-05T21:11:33.458Z,5.50
2023-05-05T21:14:36.222Z,11.50
2023-05-05T21:17:39.014Z,9.70
2023-05-05T21:20:41.798Z,5.80
2023-05-05T21:23:47.883Z,13.90
2023-05-05T21:26:50.689Z,6.00
2023-05-05T21:29:53.432Z,6.40
2023-05-05T21:32:56.252Z,7.80
2023-05-05T21:35:59.178Z,8.00
2023-05-05T21:39:02.081Z,10.90
2023-05-05T21:42:04.813Z,8.90
2023-05-05T21:45:08.284Z,8.70
2023-05-05T21:48:11.081Z,5.70
2023-05-05T21:51:13.807Z,6.10
2023-05-05T21:54:16.972Z,7.80
2023-05-05T21:57:19.783Z,5.90
2023-05-05T22:00:22.762Z,5.60
2023-05-05T22:03:26.286Z,12.40
2023-05-05T22:06:29.124Z,11.30
2023-05-05T22:09:31.989Z,6.40
2023-05-05T22:12:34.778Z,9.10
2023-05-05T22:15:46.092Z,7.40
2023-05-05T22:18:50.424Z,14.10
2023-05-05T22:21:53.426Z,7.60
2023-05-05T22:24:56.192Z,10.40
2023-05-05T22:27:59.027Z,6.30
2023-05-05T22:31:01.976Z,6.50
2023-05-05T22:34:04.892Z,12.30
2023-05-05T22:37:07.657Z,7.00
2023-05-05T22:40:13.001Z,6.90
2023-05-05T22:43:15.874Z,5.40
2023-05-05T22:46:18.697Z,14.70
2023-05-05T22:49:22.755Z,9.30
2023-05-05T22:52:28.212Z,6.40
2023-05-05T22:55:30.939Z,6.00
2023-05-05T22:58:33.755Z,10.30
2023-05-05T23:01:36.701Z,5.50
2023-05-05T23:04:39.530Z,6.00
2023-05-05T23:07:42.350Z,6.90
2023-05-05T23:10:45.097Z,5.90
2023-05-05T23:13:47.885Z,6.60
2023-05-05T23:16:50.892Z,7.60
2023-05-05T23:19:53.676Z,7.00
2023-05-05T23:22:56.467Z,9.60
2023-05-05T23:25:59.253Z,7.90
2023-05-05T23:29:01.970Z,5.90
2023-05-05T23:32:05.565Z,16.40
2023-05-05T23:35:09.137Z,7.30
2023-05-05T23:38:12.179Z,9.90
2023-05-05T23:41:14.947Z,6.70
2023-05-05T23:44:17.735Z,6.60
2023-05-05T23:47:20.473Z,6.10
2023-05-05T23:50:23.310Z,5.70
2023-05-05T23:53:26.088Z,6.40
2023-05-05T23:56:28.832Z,9.00
2023-05-05T23:59:31.644Z,7.10
